Americus, Kansas
Current Conditions -  °F | °C
As of 7:53 PM on Monday 22 Dec 2014 (Local Time) from KEMP Reporting Station
Clear Clear  
Wind Chill: 32°   Ceiling: Unl
Heat Index: 37°   Visibility: 10mi
Dew Point: 33°   Wind: 7mph
Humidity: 86%   Direction: 240°WSW
Pressure: 29.56"   Gusts: NA
Location:  38.51°N, 96.26°W
Report Text: KEMP 230153Z AUTO 24006KT 10SM CLR 03/01 A2956 RMK AO2 SLP017 T00280006
Loading
Personal Weather Stations






























Interactive Weather Map New forecast layout! Learn more

10-Day Weather Forecast

Advertisements
Track Severe Weather on mobile